Terminal Aerodrome Forecast
Issued by NWS

Home | Current Version | Previous Version | Text Only | Print | Product List | Glossary On
Versions: 1 2 3 4 5 6 7 8 9 10 11 12 13 14 15 16 17 18 19 20 21 22 23 24 25 26 27
000
FTUS43 KDLH 230500 RRA
TAFBRD
TAF
KBRD 230542Z 2306/2406 18012KT 6SM -DZ VCSH SCT010 OVC025
      TEMPO 2306/2310 3SM -RA BR BKN008
     FM231000 20006KT P6SM SCT020 BKN060
     FM231500 22010KT P6SM SKC=

USA.gov is the U.S. government's official web portal to all federal, state and local government web resources and services.